createdAt,value
2018-02-10T00:00:10.946Z,38.20
2018-02-10T00:02:45.412Z,53.83
2018-02-10T00:05:19.705Z,48.43
2018-02-10T00:07:53.438Z,53.83
2018-02-10T00:10:27.307Z,52.93
2018-02-10T00:13:01.027Z,49.33
2018-02-10T00:15:38.088Z,39.50
2018-02-10T00:18:11.566Z,30.73
2018-02-10T00:20:44.944Z,26.87
2018-02-10T00:23:18.383Z,23.33
2018-02-10T00:25:55.102Z,26.40
2018-02-10T00:28:28.418Z,25.33
2018-02-10T00:31:02.629Z,34.87
2018-02-10T00:33:36.368Z,43.17
2018-02-10T00:36:11.092Z,37.63
2018-02-10T00:38:44.356Z,37.77
2018-02-10T00:41:17.737Z,30.97
2018-02-10T00:43:51.208Z,37.77
2018-02-10T00:46:25.798Z,27.97
2018-02-10T00:48:59.278Z,41.37
2018-02-10T00:51:32.641Z,30.70
2018-02-10T00:54:06.163Z,22.17
2018-02-10T00:56:39.559Z,22.83
2018-02-10T00:59:12.923Z,24.63
2018-02-10T01:01:46.451Z,28.27
2018-02-10T01:04:21.221Z,25.53
2018-02-10T01:06:54.988Z,26.33
2018-02-10T01:09:28.452Z,27.90
2018-02-10T01:12:01.552Z,25.17
2018-02-10T01:14:39.048Z,21.57
2018-02-10T01:17:12.431Z,21.43
2018-02-10T01:19:46.271Z,21.63
2018-02-10T01:22:20.184Z,29.73
2018-02-10T01:24:57.477Z,24.93
2018-02-10T01:27:30.887Z,25.07
2018-02-10T01:30:04.423Z,22.63
2018-02-10T01:32:38.847Z,20.57
2018-02-10T01:35:13.672Z,22.27
2018-02-10T01:37:46.956Z,21.10
2018-02-10T01:40:20.719Z,21.30
2018-02-10T01:42:54.111Z,25.13
2018-02-10T01:45:28.826Z,22.47
2018-02-10T01:48:02.775Z,21.47
2018-02-10T01:50:36.308Z,21.40
2018-02-10T01:53:09.767Z,19.00
2018-02-10T01:55:49.104Z,23.67
2018-02-10T01:58:22.686Z,22.13
2018-02-10T02:00:56.435Z,24.23
2018-02-10T02:03:30.073Z,23.37
2018-02-10T02:06:04.612Z,24.70
2018-02-10T02:08:37.916Z,23.43
2018-02-10T02:11:11.288Z,21.87
2018-02-10T02:13:45.499Z,21.53
2018-02-10T02:16:19.944Z,24.37
2018-02-10T02:18:53.733Z,24.20
2018-02-10T02:21:27.591Z,21.80
2018-02-10T02:24:03.872Z,22.23
2018-02-10T02:26:37.247Z,21.47
2018-02-10T02:29:11.076Z,22.13
2018-02-10T02:31:44.175Z,20.43
2018-02-10T02:34:18.320Z,20.90
2018-02-10T02:36:52.028Z,23.07
2018-02-10T02:39:26.699Z,19.90
2018-02-10T02:42:00.109Z,21.80
2018-02-10T02:44:37.313Z,23.03
2018-02-10T02:47:10.393Z,21.37
2018-02-10T02:49:43.980Z,20.40
2018-02-10T02:52:17.513Z,21.33
2018-02-10T02:54:53.893Z,20.80
2018-02-10T02:57:27.272Z,22.37
2018-02-10T03:00:00.630Z,21.70
2018-02-10T03:02:33.956Z,21.50
2018-02-10T03:05:08.618Z,20.33
2018-02-10T03:07:42.681Z,24.40
2018-02-10T03:10:15.876Z,26.17
2018-02-10T03:12:49.531Z,30.13
2018-02-10T03:15:24.076Z,27.40
2018-02-10T03:17:57.767Z,21.97
2018-02-10T03:20:31.157Z,23.17
2018-02-10T03:23:05.155Z,21.67
2018-02-10T03:25:42.328Z,27.13
2018-02-10T03:28:15.739Z,24.57
2018-02-10T03:30:49.599Z,24.47
2018-02-10T03:33:22.876Z,24.13
2018-02-10T03:35:58.524Z,25.27
2018-02-10T03:38:31.752Z,24.60
2018-02-10T03:41:06.495Z,21.93
2018-02-10T03:43:39.772Z,20.77
2018-02-10T03:46:13.508Z,20.93
2018-02-10T03:48:47.223Z,23.57
2018-02-10T03:51:21.166Z,21.23
2018-02-10T03:53:57.769Z,25.77
2018-02-10T03:56:31.131Z,23.90
2018-02-10T03:59:04.699Z,27.40
2018-02-10T04:01:38.196Z,30.13
2018-02-10T04:04:13.002Z,36.33
2018-02-10T04:06:46.088Z,53.47
2018-02-10T04:09:19.533Z,33.77
2018-02-10T04:11:53.150Z,35.33
2018-02-10T04:14:26.632Z,32.63
2018-02-10T04:17:00.096Z,46.30
2018-02-10T04:19:33.556Z,49.50
2018-02-10T04:22:06.940Z,44.17
2018-02-10T04:24:43.715Z,44.33
2018-02-10T04:27:17.169Z,50.67
2018-02-10T04:29:50.495Z,45.17
2018-02-10T04:32:23.973Z,93.53
2018-02-10T04:35:00.583Z,93.73
2018-02-10T04:37:33.904Z,55.03
2018-02-10T04:40:07.474Z,75.93
2018-02-10T04:42:40.492Z,72.53
2018-02-10T04:45:18.585Z,53.30
2018-02-10T04:47:52.002Z,44.10
2018-02-10T04:50:25.763Z,33.73
2018-02-10T04:52:59.165Z,33.57
2018-02-10T04:55:34.487Z,38.03
2018-02-10T04:58:07.733Z,122.87
2018-02-10T05:00:41.688Z,97.40
2018-02-10T05:03:15.644Z,39.87
2018-02-10T05:05:49.223Z,33.60
2018-02-10T05:08:22.443Z,35.60
2018-02-10T05:10:56.249Z,39.63
2018-02-10T05:13:29.791Z,38.70
2018-02-10T05:16:03.311Z,33.03
2018-02-10T05:18:36.827Z,37.43
2018-02-10T05:21:10.501Z,33.10
2018-02-10T05:23:47.464Z,31.17
2018-02-10T05:26:20.656Z,37.03
2018-02-10T05:28:54.235Z,30.67
2018-02-10T05:31:28.129Z,32.63
2018-02-10T05:34:03.160Z,34.57
2018-02-10T05:36:36.388Z,32.17
2018-02-10T05:39:09.898Z,37.07
2018-02-10T05:41:43.315Z,26.70
2018-02-10T05:44:20.637Z,26.00
2018-02-10T05:46:54.024Z,22.47
2018-02-10T05:49:27.757Z,25.03
2018-02-10T05:52:00.885Z,24.63
2018-02-10T05:54:35.293Z,25.10
2018-02-10T05:57:08.807Z,26.43
2018-02-10T05:59:42.543Z,25.53
2018-02-10T06:02:16.345Z,27.43
2018-02-10T06:05:00.510Z,30.90
2018-02-10T06:07:34.768Z,26.47
2018-02-10T06:10:07.954Z,24.40
2018-02-10T06:12:41.892Z,30.23
2018-02-10T06:15:18.496Z,25.33
2018-02-10T06:17:51.895Z,28.10
2018-02-10T06:20:26.144Z,24.30
2018-02-10T06:22:59.703Z,34.30
2018-02-10T06:25:37.103Z,31.17
2018-02-10T06:28:10.432Z,26.03
2018-02-10T06:30:44.028Z,27.53
2018-02-10T06:33:17.701Z,27.83
2018-02-10T06:35:51.072Z,26.63
2018-02-10T06:38:24.333Z,35.07
2018-02-10T06:40:57.667Z,36.87
2018-02-10T06:43:31.139Z,36.57
2018-02-10T06:52:54.164Z,48.70
2018-02-10T06:55:32.590Z,32.63
2018-02-10T06:58:06.055Z,25.90
2018-02-10T07:00:39.418Z,26.47
2018-02-10T07:03:15.859Z,24.77
2018-02-10T07:05:49.293Z,26.30
2018-02-10T07:08:22.721Z,24.03
2018-02-10T07:10:56.053Z,22.33
2018-02-10T07:13:30.580Z,22.07
2018-02-10T07:16:03.698Z,23.83
2018-02-10T07:18:37.192Z,26.47
2018-02-10T07:21:10.571Z,20.40
2018-02-10T07:23:45.013Z,23.30
2018-02-10T07:26:18.380Z,27.83
2018-02-10T07:28:51.485Z,34.03
2018-02-10T07:31:25.797Z,36.60
2018-02-10T07:34:00.412Z,30.03
2018-02-10T07:36:33.920Z,28.50
2018-02-10T07:39:07.321Z,25.70
2018-02-10T07:41:41.749Z,22.00
2018-02-10T07:44:18.522Z,25.27
2018-02-10T07:46:51.924Z,26.30
2018-02-10T07:49:25.468Z,26.67
2018-02-10T07:51:58.824Z,22.60
2018-02-10T07:54:36.401Z,19.47
2018-02-10T07:57:09.626Z,25.17
2018-02-10T07:59:43.224Z,23.53
2018-02-10T08:02:16.949Z,22.40
2018-02-10T08:04:54.636Z,26.20
2018-02-10T08:07:28.536Z,22.00
2018-02-10T08:10:02.200Z,21.10
2018-02-10T08:12:35.596Z,23.47
2018-02-10T08:15:09.892Z,43.73
2018-02-10T08:17:43.906Z,24.60
2018-02-10T08:20:17.613Z,24.60
2018-02-10T08:22:52.162Z,35.03
2018-02-10T08:25:25.273Z,24.37
2018-02-10T08:27:58.805Z,24.30
2018-02-10T08:30:33.340Z,20.37
2018-02-10T08:33:14.466Z,29.97
2018-02-10T08:35:48.393Z,25.67
2018-02-10T08:38:21.736Z,35.83
2018-02-10T08:40:55.464Z,41.63
2018-02-10T08:43:28.944Z,51.40
2018-02-10T08:46:03.044Z,44.97
2018-02-10T08:48:37.119Z,53.87
2018-02-10T08:51:10.705Z,39.17
2018-02-10T08:53:45.642Z,40.40
2018-02-10T08:56:19.117Z,39.23
2018-02-10T08:58:55.714Z,35.30
2018-02-10T09:01:29.155Z,42.83
2018-02-10T09:04:03.874Z,48.10
2018-02-10T09:06:37.323Z,37.97
2018-02-10T09:09:10.864Z,42.17
2018-02-10T09:11:44.325Z,41.53
2018-02-10T09:14:21.168Z,37.03
2018-02-10T09:16:54.637Z,36.50
2018-02-10T09:19:28.569Z,41.13
2018-02-10T09:22:02.575Z,37.33
2018-02-10T09:24:40.113Z,49.77
2018-02-10T09:27:13.244Z,35.17
2018-02-10T09:29:46.669Z,35.97
2018-02-10T09:32:20.863Z,31.93
2018-02-10T09:34:58.006Z,29.37
2018-02-10T09:37:31.430Z,25.60
2018-02-10T09:40:05.773Z,20.87
2018-02-10T09:42:39.569Z,21.50
2018-02-10T09:45:14.302Z,23.90
2018-02-10T09:47:48.076Z,20.57
2018-02-10T09:50:21.648Z,18.43
2018-02-10T09:52:55.444Z,21.43
2018-02-10T09:55:28.965Z,18.60
2018-02-10T09:58:02.404Z,21.00
2018-02-10T10:00:35.979Z,19.67
2018-02-10T10:03:10.805Z,23.77
2018-02-10T10:05:44.128Z,18.53
2018-02-10T10:08:28.638Z,24.40
2018-02-10T10:11:02.152Z,17.90
2018-02-10T10:13:49.474Z,19.73
2018-02-10T10:16:24.145Z,17.97
2018-02-10T10:18:58.033Z,16.83
2018-02-10T10:21:31.384Z,17.13
2018-02-10T10:24:06.209Z,14.47
2018-02-10T10:26:39.741Z,14.33
2018-02-10T10:29:13.090Z,17.27
2018-02-10T10:31:47.253Z,17.27
2018-02-10T10:34:21.151Z,15.67
2018-02-10T10:36:54.409Z,16.87
2018-02-10T10:39:27.689Z,19.27
2018-02-10T10:42:01.253Z,36.53
2018-02-10T10:44:35.650Z,27.23
2018-02-10T10:47:09.882Z,17.73
2018-02-10T10:49:43.600Z,19.90
2018-02-10T10:52:17.330Z,26.40
2018-02-10T10:54:51.203Z,43.03
2018-02-10T10:57:27.529Z,26.53
2018-02-10T11:00:00.986Z,22.73
2018-02-10T11:02:34.749Z,21.90
2018-02-10T11:05:08.705Z,16.07
2018-02-10T11:07:42.085Z,16.67
2018-02-10T11:10:15.445Z,17.40
2018-02-10T11:12:49.029Z,17.00
2018-02-10T11:15:22.393Z,16.93
2018-02-10T11:17:55.837Z,16.90
2018-02-10T11:20:29.096Z,24.17
2018-02-10T11:23:02.904Z,18.00
2018-02-10T11:25:36.160Z,29.70
2018-02-10T11:28:09.865Z,21.17
2018-02-10T11:30:44.630Z,17.03
2018-02-10T11:33:18.586Z,14.83
2018-02-10T11:35:52.647Z,14.77
2018-02-10T11:38:26.308Z,16.27
2018-02-10T11:41:00.410Z,16.73
2018-02-10T11:43:34.037Z,18.00
2018-02-10T11:46:07.448Z,14.37
2018-02-10T11:48:40.803Z,35.13
2018-02-10T11:51:14.740Z,17.00
2018-02-10T11:53:48.714Z,15.20
2018-02-10T11:56:22.220Z,15.17
2018-02-10T11:58:55.729Z,14.67
2018-02-10T12:01:29.384Z,19.17
2018-02-10T12:04:03.329Z,20.73
2018-02-10T12:06:36.666Z,20.63
2018-02-10T12:09:10.900Z,21.13
2018-02-10T12:11:44.656Z,25.17
2018-02-10T12:14:25.360Z,21.27
2018-02-10T12:16:59.102Z,13.53
2018-02-10T12:19:32.576Z,12.67
2018-02-10T12:22:06.186Z,16.73
2018-02-10T12:24:40.181Z,14.97
2018-02-10T12:27:13.648Z,15.23
2018-02-10T12:29:47.333Z,15.40
2018-02-10T12:32:20.775Z,17.30
2018-02-10T12:34:54.237Z,19.53
2018-02-10T12:37:27.729Z,16.63
2018-02-10T12:40:01.153Z,19.50
2018-02-10T12:42:36.030Z,16.87
2018-02-10T12:45:09.284Z,17.47
2018-02-10T12:50:32.546Z,15.17
2018-02-10T12:53:07.361Z,11.87
2018-02-10T12:55:40.806Z,25.00
2018-02-10T12:58:14.193Z,16.53
2018-02-10T13:00:48.108Z,17.60
2018-02-10T13:03:21.755Z,17.00
2018-02-10T13:05:55.161Z,22.70
2018-02-10T13:08:28.352Z,20.00
2018-02-10T13:11:01.665Z,16.37
2018-02-10T13:13:38.836Z,19.77
2018-02-10T13:16:12.193Z,39.47
2018-02-10T13:18:45.517Z,28.83
2018-02-10T13:21:18.776Z,23.30
2018-02-10T13:23:52.387Z,14.67
2018-02-10T13:26:26.407Z,15.57
2018-02-10T13:28:59.651Z,13.87
2018-02-10T13:31:32.878Z,13.87
2018-02-10T13:34:06.265Z,17.33
2018-02-10T13:36:40.082Z,14.37
2018-02-10T13:39:13.813Z,15.47
2018-02-10T13:41:47.004Z,24.03
2018-02-10T13:44:21.445Z,17.10
2018-02-10T13:46:54.502Z,12.00
2018-02-10T13:49:27.664Z,13.27
2018-02-10T13:52:01.170Z,15.03
2018-02-10T13:54:35.616Z,12.27
2018-02-10T13:57:09.613Z,13.43
2018-02-10T13:59:43.128Z,19.47
2018-02-10T14:02:16.450Z,17.53
2018-02-10T14:04:49.906Z,14.50
2018-02-10T14:07:23.188Z,22.17
2018-02-10T14:09:56.472Z,24.90
2018-02-10T14:12:30.820Z,15.77
2018-02-10T14:15:04.784Z,19.20
2018-02-10T14:17:39.320Z,18.33
2018-02-10T14:20:12.749Z,19.30
2018-02-10T14:22:47.065Z,18.83
2018-02-10T14:25:20.228Z,13.37
2018-02-10T14:27:53.616Z,15.10
2018-02-10T14:30:26.728Z,19.13
2018-02-10T14:33:00.410Z,15.17
2018-02-10T14:35:34.361Z,22.03
2018-02-10T14:38:07.566Z,18.57
2018-02-10T14:40:41.396Z,25.47
2018-02-10T14:43:16.551Z,22.40
2018-02-10T14:45:50.318Z,24.27
2018-02-10T14:48:24.505Z,29.53
2018-02-10T14:50:58.456Z,30.63
2018-02-10T14:53:32.960Z,24.83
2018-02-10T14:56:07.576Z,26.03
2018-02-10T14:58:41.964Z,38.17
2018-02-10T15:01:16.132Z,38.27
2018-02-10T15:03:52.192Z,39.47
2018-02-10T15:06:27.288Z,25.37
2018-02-10T15:09:01.784Z,25.20
2018-02-10T15:11:37.449Z,29.03
2018-02-10T15:14:14.625Z,25.20
2018-02-10T15:16:51.456Z,26.10
2018-02-10T15:19:25.652Z,26.00
2018-02-10T15:22:01.219Z,21.93
2018-02-10T15:24:35.928Z,15.43
2018-02-10T15:27:09.545Z,28.67
2018-02-10T15:29:55.393Z,18.90
2018-02-10T15:32:41.451Z,24.40
2018-02-10T15:35:17.538Z,24.67
2018-02-10T15:40:30.193Z,28.07
2018-02-10T15:43:06.741Z,22.20
2018-02-10T15:45:40.075Z,23.17
2018-02-10T15:48:13.986Z,18.87
2018-02-10T15:50:49.262Z,32.77
2018-02-10T15:53:26.921Z,21.13
2018-02-10T15:56:01.429Z,30.23
2018-02-10T15:58:35.562Z,19.90
2018-02-10T16:01:10.508Z,22.60
2018-02-10T16:03:44.765Z,23.60
2018-02-10T16:06:19.209Z,24.40
2018-02-10T16:08:53.437Z,25.60
2018-02-10T16:11:26.813Z,25.90
2018-02-10T16:14:01.813Z,28.70
2018-02-10T16:16:36.133Z,30.03
2018-02-10T16:19:10.176Z,19.90
2018-02-10T16:21:45.856Z,73.40
2018-02-10T16:24:19.812Z,54.47
2018-02-10T16:26:54.408Z,31.53
2018-02-10T16:29:28.755Z,27.07
2018-02-10T16:32:04.322Z,30.40
2018-02-10T16:34:38.573Z,25.53
2018-02-10T16:37:13.097Z,25.43
2018-02-10T16:39:47.729Z,22.47
2018-02-10T16:42:23.598Z,26.43
2018-02-10T16:44:58.521Z,20.77
2018-02-10T16:47:33.633Z,18.33
2018-02-10T16:50:06.992Z,20.37
2018-02-10T16:52:41.059Z,16.83
2018-02-10T16:55:15.477Z,21.43
2018-02-10T16:57:49.620Z,22.27
2018-02-10T17:00:23.892Z,23.73
2018-02-10T17:02:59.934Z,17.80
2018-02-10T17:05:34.716Z,20.03
2018-02-10T17:08:09.256Z,28.33
2018-02-10T17:10:43.702Z,28.93
2018-02-10T17:13:18.082Z,23.70
2018-02-10T17:15:52.963Z,23.17
2018-02-10T17:18:26.845Z,21.37
2018-02-10T17:21:01.051Z,24.50
2018-02-10T17:23:35.841Z,21.63
2018-02-10T17:26:09.477Z,18.93
2018-02-10T17:28:44.052Z,21.77
2018-02-10T17:31:17.709Z,25.50
2018-02-10T17:33:53.137Z,16.57
2018-02-10T17:36:28.146Z,21.00
2018-02-10T17:39:02.943Z,24.47
2018-02-10T17:41:37.366Z,15.30
2018-02-10T17:44:11.365Z,18.23
2018-02-10T17:46:46.203Z,20.03
2018-02-10T17:49:19.529Z,30.13
2018-02-10T17:52:00.323Z,24.53
2018-02-10T17:54:35.202Z,50.13
2018-02-10T17:57:10.663Z,23.77
2018-02-10T17:59:44.727Z,23.00
2018-02-10T18:02:19.820Z,32.57
2018-02-10T18:04:54.942Z,22.53
2018-02-10T18:07:28.823Z,32.23
2018-02-10T18:10:03.091Z,26.33
2018-02-10T18:12:40.866Z,35.50
2018-02-10T18:15:15.494Z,22.80
2018-02-10T18:17:50.880Z,20.50
2018-02-10T18:20:24.824Z,31.80
2018-02-10T18:23:02.624Z,31.50
2018-02-10T18:25:38.185Z,16.37
2018-02-10T18:28:13.327Z,17.80
2018-02-10T18:30:48.022Z,16.77
2018-02-10T18:33:23.757Z,17.87
2018-02-10T18:35:58.026Z,24.00
2018-02-10T18:38:34.501Z,42.40
2018-02-10T18:41:09.198Z,24.90
2018-02-10T18:43:45.598Z,34.93
2018-02-10T18:46:19.950Z,30.77
2018-02-10T18:48:54.369Z,35.50
2018-02-10T18:51:28.195Z,18.43
2018-02-10T18:54:03.902Z,18.53
2018-02-10T18:56:39.403Z,24.67
2018-02-10T18:59:13.345Z,17.37
2018-02-10T19:01:51.245Z,18.73
2018-02-10T19:04:25.253Z,24.27
2018-02-10T19:06:59.523Z,16.97
2018-02-10T19:09:33.636Z,15.83
2018-02-10T19:12:11.638Z,28.20
2018-02-10T19:14:46.298Z,19.60
2018-02-10T19:17:20.837Z,20.20
2018-02-10T19:19:54.576Z,12.60
2018-02-10T19:22:29.379Z,15.30
2018-02-10T19:25:03.938Z,14.50
2018-02-10T19:27:38.865Z,14.17
2018-02-10T19:30:13.712Z,16.03
2018-02-10T19:32:53.236Z,23.97
2018-02-10T19:35:27.828Z,25.03
2018-02-10T19:38:01.994Z,19.33
2018-02-10T19:40:36.823Z,17.53
2018-02-10T19:43:11.999Z,15.23
2018-02-10T19:45:46.608Z,16.77
2018-02-10T19:48:21.258Z,14.80
2018-02-10T19:50:55.707Z,13.77
2018-02-10T19:53:33.561Z,12.80
2018-02-10T19:56:07.910Z,15.43
2018-02-10T19:58:43.404Z,13.23
2018-02-10T20:01:19.115Z,14.23
2018-02-10T20:03:53.621Z,12.10
2018-02-10T20:06:27.596Z,13.30
2018-02-10T20:09:02.956Z,12.20
2018-02-10T20:11:40.698Z,11.67
2018-02-10T20:14:15.328Z,11.63
2018-02-10T20:16:49.617Z,12.03
2018-02-10T20:19:23.707Z,14.80
2018-02-10T20:22:02.013Z,12.73
2018-02-10T20:24:36.918Z,11.53
2018-02-10T20:27:11.201Z,13.13
2018-02-10T20:29:44.920Z,14.53
2018-02-10T20:32:22.670Z,16.17
2018-02-10T20:34:56.757Z,12.70
2018-02-10T20:37:32.429Z,14.47
2018-02-10T20:40:05.749Z,16.50
2018-02-10T20:42:44.137Z,11.23
2018-02-10T20:45:18.628Z,12.67
2018-02-10T20:47:53.279Z,11.83
2018-02-10T20:50:28.292Z,13.73
2018-02-10T20:53:04.932Z,16.77
2018-02-10T20:55:39.160Z,14.30
2018-02-10T20:58:13.537Z,13.50
2018-02-10T21:00:47.936Z,10.73
2018-02-10T21:03:22.805Z,11.73
2018-02-10T21:05:57.888Z,14.43
2018-02-10T21:08:32.804Z,12.03
2018-02-10T21:11:07.073Z,13.83
2018-02-10T21:13:40.916Z,15.80
2018-02-10T21:16:15.411Z,11.63
2018-02-10T21:18:49.761Z,14.90
2018-02-10T21:21:24.681Z,16.13
2018-02-10T21:23:58.297Z,18.97
2018-02-10T21:26:33.412Z,16.87
2018-02-10T21:29:07.560Z,14.53
2018-02-10T21:31:41.623Z,15.77
2018-02-10T21:34:16.973Z,15.27
2018-02-10T21:36:51.156Z,19.50
2018-02-10T21:39:25.284Z,16.67
2018-02-10T21:42:03.145Z,12.23
2018-02-10T21:44:37.198Z,12.67
2018-02-10T21:47:11.921Z,16.40
2018-02-10T21:49:45.797Z,19.93
2018-02-10T21:52:21.872Z,17.83
2018-02-10T21:54:55.069Z,17.53
2018-02-10T21:57:29.394Z,17.77
2018-02-10T22:00:03.129Z,20.97
2018-02-10T22:02:38.781Z,18.87
2018-02-10T22:05:12.528Z,17.97
2018-02-10T22:07:47.717Z,12.97
2018-02-10T22:10:22.227Z,18.80
2018-02-10T22:13:00.485Z,13.17
2018-02-10T22:15:34.864Z,14.80
2018-02-10T22:18:08.221Z,16.13
2018-02-10T22:20:42.795Z,15.50
2018-02-10T22:23:21.030Z,18.83
2018-02-10T22:25:55.175Z,17.63
2018-02-10T22:28:29.300Z,17.07
2018-02-10T22:31:05.424Z,18.13
2018-02-10T22:33:39.855Z,17.13
2018-02-10T22:36:13.584Z,18.67
2018-02-10T22:38:46.703Z,17.60
2018-02-10T22:41:24.467Z,13.43
2018-02-10T22:43:58.903Z,18.10
2018-02-10T22:46:33.684Z,14.33
2018-02-10T22:49:08.053Z,18.90
2018-02-10T22:51:42.678Z,18.07
2018-02-10T22:54:17.535Z,16.50
2018-02-10T22:56:51.893Z,19.10
2018-02-10T22:59:26.568Z,15.23
2018-02-10T23:02:03.187Z,16.57
2018-02-10T23:04:37.344Z,16.67
2018-02-10T23:07:10.776Z,13.00
2018-02-10T23:09:44.823Z,13.77
2018-02-10T23:12:20.452Z,12.03
2018-02-10T23:14:54.983Z,15.87
2018-02-10T23:17:28.739Z,10.27
2018-02-10T23:20:02.822Z,12.13
2018-02-10T23:22:41.259Z,15.97
2018-02-10T23:25:15.724Z,13.67
2018-02-10T23:27:49.881Z,14.67
2018-02-10T23:30:22.975Z,10.63
2018-02-10T23:33:03.720Z,14.87
2018-02-10T23:35:37.456Z,11.37
2018-02-10T23:38:12.415Z,12.47
2018-02-10T23:40:47.235Z,10.63
2018-02-10T23:43:21.875Z,14.17
2018-02-10T23:45:55.805Z,18.57
2018-02-10T23:48:30.063Z,10.63
2018-02-10T23:51:05.551Z,11.90
2018-02-10T23:53:39.592Z,14.60
2018-02-10T23:56:13.959Z,10.77
2018-02-10T23:58:49.596Z,10.23
